sensor_id;sensor_type;location;lat;lon;timestamp;pressure;altitude;pressure_sealevel;temperature;humidity
64853;BME280;56050;55.558;-4.644;2024-01-30T00:00:34;102393.00;;;7.34;66.59
64853;BME280;56050;55.558;-4.644;2024-01-30T00:02:59;102394.88;;;7.33;66.83
64853;BME280;56050;55.558;-4.644;2024-01-30T00:05:25;102404.81;;;7.33;66.83
64853;BME280;56050;55.558;-4.644;2024-01-30T00:07:50;102396.31;;;7.31;66.70
64853;BME280;56050;55.558;-4.644;2024-01-30T00:10:15;102400.09;;;7.30;66.75
64853;BME280;56050;55.558;-4.644;2024-01-30T00:12:41;102409.56;;;7.27;66.68
64853;BME280;56050;55.558;-4.644;2024-01-30T00:15:06;102404.06;;;7.24;66.67
64853;BME280;56050;55.558;-4.644;2024-01-30T00:17:38;102394.00;;;7.21;66.70
64853;BME280;56050;55.558;-4.644;2024-01-30T00:20:04;102403.94;;;7.20;66.85
64853;BME280;56050;55.558;-4.644;2024-01-30T00:22:31;102402.03;;;7.21;66.85
64853;BME280;56050;55.558;-4.644;2024-01-30T00:24:57;102394.78;;;7.21;66.78
64853;BME280;56050;55.558;-4.644;2024-01-30T00:27:22;102399.38;;;7.21;66.72
64853;BME280;56050;55.558;-4.644;2024-01-30T00:29:48;102402.34;;;7.19;66.66
64853;BME280;56050;55.558;-4.644;2024-01-30T00:32:14;102398.44;;;7.17;66.64
64853;BME280;56050;55.558;-4.644;2024-01-30T00:34:39;102395.28;;;7.15;66.66
64853;BME280;56050;55.558;-4.644;2024-01-30T00:37:05;102400.50;;;7.11;66.45
64853;BME280;56050;55.558;-4.644;2024-01-30T00:39:30;102395.31;;;7.06;66.47
64853;BME280;56050;55.558;-4.644;2024-01-30T00:41:56;102401.63;;;7.01;66.53
64853;BME280;56050;55.558;-4.644;2024-01-30T00:44:21;102392.03;;;7.00;66.63
64853;BME280;56050;55.558;-4.644;2024-01-30T00:46:47;102401.78;;;6.96;66.50
64853;BME280;56050;55.558;-4.644;2024-01-30T00:49:12;102393.31;;;6.94;66.85
64853;BME280;56050;55.558;-4.644;2024-01-30T00:51:38;102394.09;;;6.95;66.67
64853;BME280;56050;55.558;-4.644;2024-01-30T00:54:03;102392.97;;;6.96;66.76
64853;BME280;56050;55.558;-4.644;2024-01-30T00:56:29;102390.78;;;6.98;66.62
64853;BME280;56050;55.558;-4.644;2024-01-30T00:58:55;102383.19;;;7.00;66.61
64853;BME280;56050;55.558;-4.644;2024-01-30T01:01:21;102384.28;;;6.99;66.58
64853;BME280;56050;55.558;-4.644;2024-01-30T01:03:46;102382.41;;;6.99;66.68
64853;BME280;56050;55.558;-4.644;2024-01-30T01:06:11;102385.09;;;6.99;66.50
64853;BME280;56050;55.558;-4.644;2024-01-30T01:08:37;102391.56;;;6.98;66.43
64853;BME280;56050;55.558;-4.644;2024-01-30T01:11:02;102376.13;;;6.95;66.59
64853;BME280;56050;55.558;-4.644;2024-01-30T01:13:28;102379.56;;;6.96;66.57
64853;BME280;56050;55.558;-4.644;2024-01-30T01:15:54;102384.00;;;6.92;66.42
64853;BME280;56050;55.558;-4.644;2024-01-30T01:18:20;102376.28;;;6.90;66.64
64853;BME280;56050;55.558;-4.644;2024-01-30T01:20:45;102378.19;;;6.90;66.43
64853;BME280;56050;55.558;-4.644;2024-01-30T01:23:11;102366.69;;;6.89;66.57
64853;BME280;56050;55.558;-4.644;2024-01-30T01:25:36;102364.81;;;6.90;66.63
64853;BME280;56050;55.558;-4.644;2024-01-30T01:28:02;102373.59;;;6.90;66.55
64853;BME280;56050;55.558;-4.644;2024-01-30T01:30:28;102372.50;;;6.91;66.50
64853;BME280;56050;55.558;-4.644;2024-01-30T01:32:54;102372.97;;;6.93;66.91
64853;BME280;56050;55.558;-4.644;2024-01-30T01:35:23;102381.16;;;6.97;66.39
64853;BME280;56050;55.558;-4.644;2024-01-30T01:37:53;102377.03;;;6.99;66.29
64853;BME280;56050;55.558;-4.644;2024-01-30T01:40:25;102373.56;;;6.99;66.19
64853;BME280;56050;55.558;-4.644;2024-01-30T01:42:52;102375.94;;;7.00;66.06
64853;BME280;56050;55.558;-4.644;2024-01-30T01:45:18;102367.91;;;7.00;66.06
64853;BME280;56050;55.558;-4.644;2024-01-30T01:47:45;102369.34;;;6.98;66.06
64853;BME280;56050;55.558;-4.644;2024-01-30T01:50:13;102369.66;;;6.96;65.89
64853;BME280;56050;55.558;-4.644;2024-01-30T01:52:40;102373.44;;;6.95;65.91
64853;BME280;56050;55.558;-4.644;2024-01-30T01:55:07;102372.97;;;6.93;66.14
64853;BME280;56050;55.558;-4.644;2024-01-30T01:57:33;102392.84;;;6.92;65.98
64853;BME280;56050;55.558;-4.644;2024-01-30T02:00:00;102382.75;;;6.89;65.92
64853;BME280;56050;55.558;-4.644;2024-01-30T02:02:26;102393.78;;;6.88;65.91
64853;BME280;56050;55.558;-4.644;2024-01-30T02:04:55;102391.78;;;6.85;65.91
64853;BME280;56050;55.558;-4.644;2024-01-30T02:07:20;102398.06;;;6.80;65.91
64853;BME280;56050;55.558;-4.644;2024-01-30T02:09:46;102398.25;;;6.75;65.95
64853;BME280;56050;55.558;-4.644;2024-01-30T02:12:11;102397.63;;;6.70;65.97
64853;BME280;56050;55.558;-4.644;2024-01-30T02:14:47;102395.91;;;6.65;66.07
64853;BME280;56050;55.558;-4.644;2024-01-30T02:17:13;102401.91;;;6.62;65.96
64853;BME280;56050;55.558;-4.644;2024-01-30T02:19:41;102406.00;;;6.60;66.04
64853;BME280;56050;55.558;-4.644;2024-01-30T02:22:07;102410.09;;;6.57;66.16
64853;BME280;56050;55.558;-4.644;2024-01-30T02:24:33;102406.47;;;6.53;66.16
64853;BME280;56050;55.558;-4.644;2024-01-30T02:26:59;102410.56;;;6.50;66.07
64853;BME280;56050;55.558;-4.644;2024-01-30T02:29:24;102409.00;;;6.49;66.07
64853;BME280;56050;55.558;-4.644;2024-01-30T02:31:50;102410.88;;;6.49;66.11
64853;BME280;56050;55.558;-4.644;2024-01-30T02:34:15;102408.53;;;6.47;65.97
64853;BME280;56050;55.558;-4.644;2024-01-30T02:36:44;102407.56;;;6.43;66.04
64853;BME280;56050;55.558;-4.644;2024-01-30T02:39:10;102414.22;;;6.37;65.97
64853;BME280;56050;55.558;-4.644;2024-01-30T02:41:35;102409.50;;;6.34;66.09
64853;BME280;56050;55.558;-4.644;2024-01-30T02:44:02;102412.78;;;6.31;66.13
64853;BME280;56050;55.558;-4.644;2024-01-30T02:46:27;102415.00;;;6.29;66.37
64853;BME280;56050;55.558;-4.644;2024-01-30T02:48:53;102411.84;;;6.27;66.25
64853;BME280;56050;55.558;-4.644;2024-01-30T02:51:18;102409.50;;;6.26;66.33
64853;BME280;56050;55.558;-4.644;2024-01-30T02:53:43;102409.78;;;6.24;66.33
64853;BME280;56050;55.558;-4.644;2024-01-30T02:56:09;102412.00;;;6.22;66.30
64853;BME280;56050;55.558;-4.644;2024-01-30T02:58:36;102404.59;;;6.19;66.17
64853;BME280;56050;55.558;-4.644;2024-01-30T03:01:02;102413.56;;;6.15;66.00
64853;BME280;56050;55.558;-4.644;2024-01-30T03:03:28;102414.53;;;6.10;66.00
64853;BME280;56050;55.558;-4.644;2024-01-30T03:05:53;102415.78;;;6.04;66.08
64853;BME280;56050;55.558;-4.644;2024-01-30T03:08:19;102418.28;;;6.01;66.13
64853;BME280;56050;55.558;-4.644;2024-01-30T03:10:45;102414.03;;;6.00;66.15
64853;BME280;56050;55.558;-4.644;2024-01-30T03:13:10;102419.69;;;5.98;66.25
64853;BME280;56050;55.558;-4.644;2024-01-30T03:15:36;102417.03;;;5.98;66.22
64853;BME280;56050;55.558;-4.644;2024-01-30T03:18:02;102423.78;;;5.96;66.15
64853;BME280;56050;55.558;-4.644;2024-01-30T03:20:29;102421.75;;;5.93;66.11
64853;BME280;56050;55.558;-4.644;2024-01-30T03:22:55;102418.59;;;5.90;66.19
64853;BME280;56050;55.558;-4.644;2024-01-30T03:25:20;102414.66;;;5.88;66.01
64853;BME280;56050;55.558;-4.644;2024-01-30T03:27:46;102416.84;;;5.86;66.16
64853;BME280;56050;55.558;-4.644;2024-01-30T03:30:11;102424.38;;;5.84;65.97
64853;BME280;56050;55.558;-4.644;2024-01-30T03:32:37;102430.34;;;5.81;66.10
64853;BME280;56050;55.558;-4.644;2024-01-30T03:35:02;102434.41;;;5.78;66.01
64853;BME280;56050;55.558;-4.644;2024-01-30T03:37:28;102432.38;;;5.75;66.09
64853;BME280;56050;55.558;-4.644;2024-01-30T03:39:53;102439.13;;;5.73;66.11
64853;BME280;56050;55.558;-4.644;2024-01-30T03:42:19;102430.94;;;5.69;66.24
64853;BME280;56050;55.558;-4.644;2024-01-30T03:44:44;102435.50;;;5.69;66.19
64853;BME280;56050;55.558;-4.644;2024-01-30T03:47:10;102430.47;;;5.67;66.22
64853;BME280;56050;55.558;-4.644;2024-01-30T03:49:35;102432.66;;;5.65;66.17
64853;BME280;56050;55.558;-4.644;2024-01-30T03:52:01;102432.97;;;5.64;66.17
64853;BME280;56050;55.558;-4.644;2024-01-30T03:54:26;102440.22;;;5.63;66.11
64853;BME280;56050;55.558;-4.644;2024-01-30T03:56:51;102446.66;;;5.62;66.13
64853;BME280;56050;55.558;-4.644;2024-01-30T03:59:17;102450.41;;;5.61;66.19
64853;BME280;56050;55.558;-4.644;2024-01-30T04:01:47;102451.53;;;5.60;66.07
64853;BME280;56050;55.558;-4.644;2024-01-30T04:04:13;102452.16;;;5.57;66.12
64853;BME280;56050;55.558;-4.644;2024-01-30T04:06:38;102460.16;;;5.57;66.29
64853;BME280;56050;55.558;-4.644;2024-01-30T04:09:04;102466.91;;;5.55;66.07
64853;BME280;56050;55.558;-4.644;2024-01-30T04:11:29;102465.66;;;5.52;66.25
64853;BME280;56050;55.558;-4.644;2024-01-30T04:13:54;102468.78;;;5.54;66.16
64853;BME280;56050;55.558;-4.644;2024-01-30T04:16:21;102463.91;;;5.56;66.24
64853;BME280;56050;55.558;-4.644;2024-01-30T04:18:49;102457.97;;;5.59;66.14
64853;BME280;56050;55.558;-4.644;2024-01-30T04:21:15;102469.63;;;5.63;66.10
64853;BME280;56050;55.558;-4.644;2024-01-30T04:23:41;102466.16;;;5.63;66.02
64853;BME280;56050;55.558;-4.644;2024-01-30T04:26:06;102476.06;;;5.62;65.92
64853;BME280;56050;55.558;-4.644;2024-01-30T04:28:32;102467.25;;;5.62;66.03
64853;BME280;56050;55.558;-4.644;2024-01-30T04:30:57;102466.44;;;5.61;65.98
64853;BME280;56050;55.558;-4.644;2024-01-30T04:33:23;102472.59;;;5.62;65.85
64853;BME280;56050;55.558;-4.644;2024-01-30T04:35:48;102475.59;;;5.60;66.01
64853;BME280;56050;55.558;-4.644;2024-01-30T04:38:14;102480.13;;;5.60;65.79
64853;BME280;56050;55.558;-4.644;2024-01-30T04:40:40;102480.94;;;5.60;65.83
64853;BME280;56050;55.558;-4.644;2024-01-30T04:43:05;102479.97;;;5.56;65.75
64853;BME280;56050;55.558;-4.644;2024-01-30T04:45:31;102477.72;;;5.50;65.61
64853;BME280;56050;55.558;-4.644;2024-01-30T04:47:56;102481.47;;;5.40;65.57
64853;BME280;56050;55.558;-4.644;2024-01-30T04:50:23;102499.03;;;5.32;65.69
64853;BME280;56050;55.558;-4.644;2024-01-30T04:52:48;102494.44;;;5.24;65.87
64853;BME280;56050;55.558;-4.644;2024-01-30T04:55:14;102500.69;;;5.20;66.07
64853;BME280;56050;55.558;-4.644;2024-01-30T04:57:39;102505.88;;;5.16;66.13
64853;BME280;56050;55.558;-4.644;2024-01-30T05:00:06;102504.09;;;5.12;65.95
64853;BME280;56050;55.558;-4.644;2024-01-30T05:02:31;102498.56;;;5.08;66.12
64853;BME280;56050;55.558;-4.644;2024-01-30T05:04:57;102507.22;;;5.05;66.20
64853;BME280;56050;55.558;-4.644;2024-01-30T05:07:24;102511.09;;;4.99;66.01
64853;BME280;56050;55.558;-4.644;2024-01-30T05:09:49;102511.22;;;4.94;66.18
64853;BME280;56050;55.558;-4.644;2024-01-30T05:12:14;102510.25;;;4.90;66.17
64853;BME280;56050;55.558;-4.644;2024-01-30T05:14:40;102506.91;;;4.85;65.96
64853;BME280;56050;55.558;-4.644;2024-01-30T05:17:05;102515.53;;;4.82;66.04
64853;BME280;56050;55.558;-4.644;2024-01-30T05:19:31;102514.06;;;4.75;65.99
64853;BME280;56050;55.558;-4.644;2024-01-30T05:21:56;102512.31;;;4.71;65.98
64853;BME280;56050;55.558;-4.644;2024-01-30T05:24:22;102513.97;;;4.67;66.28
64853;BME280;56050;55.558;-4.644;2024-01-30T05:26:47;102507.97;;;4.61;66.15
64853;BME280;56050;55.558;-4.644;2024-01-30T05:29:13;102508.59;;;4.58;66.22
64853;BME280;56050;55.558;-4.644;2024-01-30T05:31:38;102510.75;;;4.56;66.40
64853;BME280;56050;55.558;-4.644;2024-01-30T05:34:04;102512.47;;;4.52;66.17
64853;BME280;56050;55.558;-4.644;2024-01-30T05:36:29;102522.94;;;4.49;66.15
64853;BME280;56050;55.558;-4.644;2024-01-30T05:38:56;102519.91;;;4.42;66.17
64853;BME280;56050;55.558;-4.644;2024-01-30T05:41:21;102525.06;;;4.38;66.09
64853;BME280;56050;55.558;-4.644;2024-01-30T05:43:47;102529.38;;;4.34;66.19
64853;BME280;56050;55.558;-4.644;2024-01-30T05:46:13;102525.75;;;4.30;66.30
64853;BME280;56050;55.558;-4.644;2024-01-30T05:48:38;102521.31;;;4.26;66.16
64853;BME280;56050;55.558;-4.644;2024-01-30T05:51:04;102524.88;;;4.21;66.31
64853;BME280;56050;55.558;-4.644;2024-01-30T05:53:29;102526.53;;;4.17;66.36
64853;BME280;56050;55.558;-4.644;2024-01-30T05:55:55;102528.25;;;4.13;66.36
64853;BME280;56050;55.558;-4.644;2024-01-30T05:58:20;102535.25;;;4.09;66.22
64853;BME280;56050;55.558;-4.644;2024-01-30T06:00:46;102530.50;;;4.06;66.20
64853;BME280;56050;55.558;-4.644;2024-01-30T06:03:12;102540.50;;;4.00;66.17
64853;BME280;56050;55.558;-4.644;2024-01-30T06:05:37;102535.25;;;3.95;66.34
64853;BME280;56050;55.558;-4.644;2024-01-30T06:08:03;102541.50;;;3.91;66.25
64853;BME280;56050;55.558;-4.644;2024-01-30T06:10:28;102542.06;;;3.88;66.53
64853;BME280;56050;55.558;-4.644;2024-01-30T06:12:54;102549.28;;;3.87;66.43
64853;BME280;56050;55.558;-4.644;2024-01-30T06:15:19;102553.31;;;3.85;66.47
64853;BME280;56050;55.558;-4.644;2024-01-30T06:17:45;102564.00;;;3.85;66.41
64853;BME280;56050;55.558;-4.644;2024-01-30T06:20:11;102560.03;;;3.82;66.36
64853;BME280;56050;55.558;-4.644;2024-01-30T06:22:36;102559.06;;;3.78;66.50
64853;BME280;56050;55.558;-4.644;2024-01-30T06:25:02;102557.00;;;3.75;66.25
64853;BME280;56050;55.558;-4.644;2024-01-30T06:27:28;102559.44;;;3.72;66.40
64853;BME280;56050;55.558;-4.644;2024-01-30T06:29:53;102564.88;;;3.67;66.39
64853;BME280;56050;55.558;-4.644;2024-01-30T06:32:19;102570.00;;;3.63;66.60
64853;BME280;56050;55.558;-4.644;2024-01-30T06:34:44;102576.69;;;3.61;66.61
64853;BME280;56050;55.558;-4.644;2024-01-30T06:37:10;102576.97;;;3.59;66.52
64853;BME280;56050;55.558;-4.644;2024-01-30T06:39:35;102584.25;;;3.53;66.34
64853;BME280;56050;55.558;-4.644;2024-01-30T06:42:01;102586.44;;;3.51;66.51
64853;BME280;56050;55.558;-4.644;2024-01-30T06:44:27;102594.22;;;3.48;66.46
64853;BME280;56050;55.558;-4.644;2024-01-30T06:46:52;102601.22;;;3.44;66.59
64853;BME280;56050;55.558;-4.644;2024-01-30T06:49:17;102593.53;;;3.42;66.66
64853;BME280;56050;55.558;-4.644;2024-01-30T06:51:43;102600.72;;;3.42;66.59
64853;BME280;56050;55.558;-4.644;2024-01-30T06:54:08;102601.00;;;3.40;66.44
64853;BME280;56050;55.558;-4.644;2024-01-30T06:56:34;102601.91;;;3.36;66.53
64853;BME280;56050;55.558;-4.644;2024-01-30T06:58:59;102606.22;;;3.32;66.45
64853;BME280;56050;55.558;-4.644;2024-01-30T07:01:29;102614.78;;;3.29;66.71
64853;BME280;56050;55.558;-4.644;2024-01-30T07:03:55;102613.22;;;3.28;66.56
64853;BME280;56050;55.558;-4.644;2024-01-30T07:06:20;102618.03;;;3.26;66.73
64853;BME280;56050;55.558;-4.644;2024-01-30T07:08:46;102621.78;;;3.25;66.59
64853;BME280;56050;55.558;-4.644;2024-01-30T07:11:18;102618.09;;;3.21;66.43
64853;BME280;56050;55.558;-4.644;2024-01-30T07:13:44;102625.31;;;3.20;66.51
64853;BME280;56050;55.558;-4.644;2024-01-30T07:16:09;102623.22;;;3.17;66.55
64853;BME280;56050;55.558;-4.644;2024-01-30T07:18:34;102625.66;;;3.14;66.54
64853;BME280;56050;55.558;-4.644;2024-01-30T07:21:00;102627.84;;;3.12;66.65
64853;BME280;56050;55.558;-4.644;2024-01-30T07:23:25;102623.88;;;3.09;66.72
64853;BME280;56050;55.558;-4.644;2024-01-30T07:25:51;102630.56;;;3.07;66.63
64853;BME280;56050;55.558;-4.644;2024-01-30T07:28:16;102630.84;;;3.05;66.69
64853;BME280;56050;55.558;-4.644;2024-01-30T07:30:42;102633.22;;;3.07;66.87
64853;BME280;56050;55.558;-4.644;2024-01-30T07:33:08;102633.75;;;3.09;66.72
64853;BME280;56050;55.558;-4.644;2024-01-30T07:35:34;102636.09;;;3.10;66.72
64853;BME280;56050;55.558;-4.644;2024-01-30T07:38:00;102636.91;;;3.11;66.67
64853;BME280;56050;55.558;-4.644;2024-01-30T07:40:25;102649.91;;;3.12;66.75
64853;BME280;56050;55.558;-4.644;2024-01-30T07:42:53;102647.25;;;3.12;66.64
64853;BME280;56050;55.558;-4.644;2024-01-30T07:45:19;102648.03;;;3.13;66.56
64853;BME280;56050;55.558;-4.644;2024-01-30T07:47:48;102662.44;;;3.12;66.42
64853;BME280;56050;55.558;-4.644;2024-01-30T07:50:14;102660.84;;;3.11;66.59
64853;BME280;56050;55.558;-4.644;2024-01-30T07:52:39;102664.09;;;3.08;66.51
64853;BME280;56050;55.558;-4.644;2024-01-30T07:55:05;102660.13;;;3.05;66.51
64853;BME280;56050;55.558;-4.644;2024-01-30T07:57:33;102666.84;;;3.03;66.37
64853;BME280;56050;55.558;-4.644;2024-01-30T07:59:59;102673.53;;;3.00;66.62
64853;BME280;56050;55.558;-4.644;2024-01-30T08:02:24;102674.09;;;2.97;66.59
64853;BME280;56050;55.558;-4.644;2024-01-30T08:04:50;102682.66;;;2.94;66.61
64853;BME280;56050;55.558;-4.644;2024-01-30T08:07:15;102678.38;;;2.93;66.79
64853;BME280;56050;55.558;-4.644;2024-01-30T08:09:43;102676.81;;;2.92;66.73
64853;BME280;56050;55.558;-4.644;2024-01-30T08:12:08;102681.34;;;2.91;66.64
64853;BME280;56050;55.558;-4.644;2024-01-30T08:14:34;102686.94;;;2.90;66.62
64853;BME280;56050;55.558;-4.644;2024-01-30T08:17:01;102684.59;;;2.88;66.67
64853;BME280;56050;55.558;-4.644;2024-01-30T08:19:26;102686.44;;;2.88;66.56
64853;BME280;56050;55.558;-4.644;2024-01-30T08:21:51;102698.97;;;2.87;66.59
64853;BME280;56050;55.558;-4.644;2024-01-30T08:24:17;102710.41;;;2.88;66.59
64853;BME280;56050;55.558;-4.644;2024-01-30T08:26:42;102699.75;;;2.88;66.76
64853;BME280;56050;55.558;-4.644;2024-01-30T08:29:08;102695.22;;;2.88;66.71
64853;BME280;56050;55.558;-4.644;2024-01-30T08:31:33;102705.56;;;2.90;66.56
64853;BME280;56050;55.558;-4.644;2024-01-30T08:33:59;102709.84;;;2.91;66.79
64853;BME280;56050;55.558;-4.644;2024-01-30T08:36:25;102717.56;;;2.92;66.71
64853;BME280;56050;55.558;-4.644;2024-01-30T08:38:50;102711.94;;;2.94;66.54
64853;BME280;56050;55.558;-4.644;2024-01-30T08:41:16;102715.88;;;2.96;66.69
64853;BME280;56050;55.558;-4.644;2024-01-30T08:43:41;102713.72;;;2.98;66.51
64853;BME280;56050;55.558;-4.644;2024-01-30T08:46:07;102708.63;;;3.02;66.71
64853;BME280;56050;55.558;-4.644;2024-01-30T08:48:32;102716.84;;;3.06;66.58
64853;BME280;56050;55.558;-4.644;2024-01-30T08:50:58;102710.66;;;3.10;66.57
64853;BME280;56050;55.558;-4.644;2024-01-30T08:53:23;102720.16;;;3.16;66.58
64853;BME280;56050;55.558;-4.644;2024-01-30T08:55:48;102707.06;;;3.20;66.69
64853;BME280;56050;55.558;-4.644;2024-01-30T08:58:14;102724.56;;;3.26;66.44
64853;BME280;56050;55.558;-4.644;2024-01-30T09:00:40;102721.53;;;3.32;66.38
64853;BME280;56050;55.558;-4.644;2024-01-30T09:03:06;102728.38;;;3.38;66.75
64853;BME280;56050;55.558;-4.644;2024-01-30T09:05:31;102727.50;;;3.43;66.74
64853;BME280;56050;55.558;-4.644;2024-01-30T09:07:57;102730.97;;;3.43;66.63
64853;BME280;56050;55.558;-4.644;2024-01-30T09:10:22;102732.56;;;3.44;66.65
64853;BME280;56050;55.558;-4.644;2024-01-30T09:12:48;102729.59;;;3.46;66.58
64853;BME280;56050;55.558;-4.644;2024-01-30T09:15:14;102733.06;;;3.46;66.65
64853;BME280;56050;55.558;-4.644;2024-01-30T09:17:40;102730.09;;;3.48;66.78
64853;BME280;56050;55.558;-4.644;2024-01-30T09:20:06;102739.59;;;3.54;66.67
64853;BME280;56050;55.558;-4.644;2024-01-30T09:22:31;102744.28;;;3.62;66.75
64853;BME280;56050;55.558;-4.644;2024-01-30T09:24:57;102733.56;;;3.67;66.68
64853;BME280;56050;55.558;-4.644;2024-01-30T09:27:23;102746.50;;;3.74;66.80
64853;BME280;56050;55.558;-4.644;2024-01-30T09:29:48;102745.03;;;3.81;66.89
64853;BME280;56050;55.558;-4.644;2024-01-30T09:32:14;102748.63;;;3.90;66.88
64853;BME280;56050;55.558;-4.644;2024-01-30T09:34:40;102739.16;;;3.98;66.68
64853;BME280;56050;55.558;-4.644;2024-01-30T09:37:05;102746.50;;;4.06;66.74
64853;BME280;56050;55.558;-4.644;2024-01-30T09:39:30;102745.06;;;4.13;66.89
64853;BME280;56050;55.558;-4.644;2024-01-30T09:42:14;102752.88;;;4.24;66.89
64853;BME280;56050;55.558;-4.644;2024-01-30T09:44:43;102748.47;;;4.33;66.70
64853;BME280;56050;55.558;-4.644;2024-01-30T09:47:09;102751.25;;;4.41;66.63
64853;BME280;56050;55.558;-4.644;2024-01-30T09:49:35;102754.31;;;4.48;66.70
64853;BME280;56050;55.558;-4.644;2024-01-30T09:52:05;102749.38;;;4.55;66.59
64853;BME280;56050;55.558;-4.644;2024-01-30T09:54:32;102756.41;;;4.65;66.48
64853;BME280;56050;55.558;-4.644;2024-01-30T09:56:58;102757.31;;;4.74;66.49
64853;BME280;56050;55.558;-4.644;2024-01-30T09:59:24;102752.84;;;4.83;66.44
64853;BME280;56050;55.558;-4.644;2024-01-30T10:01:50;102750.78;;;4.94;66.45
64853;BME280;56050;55.558;-4.644;2024-01-30T10:04:15;102751.94;;;5.01;66.38
64853;BME280;56050;55.558;-4.644;2024-01-30T10:06:41;102749.38;;;5.10;66.29
64853;BME280;56050;55.558;-4.644;2024-01-30T10:09:07;102738.09;;;5.13;66.30
64853;BME280;56050;55.558;-4.644;2024-01-30T10:11:33;102737.50;;;5.16;66.46
64853;BME280;56050;55.558;-4.644;2024-01-30T10:14:00;102741.13;;;5.20;66.51
64853;BME280;56050;55.558;-4.644;2024-01-30T10:16:25;102755.97;;;5.26;66.46
64853;BME280;56050;55.558;-4.644;2024-01-30T10:18:51;102746.28;;;5.30;66.57
64853;BME280;56050;55.558;-4.644;2024-01-30T10:21:16;102751.50;;;5.35;66.38
64853;BME280;56050;55.558;-4.644;2024-01-30T10:23:43;102748.72;;;5.40;66.65
64853;BME280;56050;55.558;-4.644;2024-01-30T10:26:12;102755.53;;;5.46;66.63
64853;BME280;56050;55.558;-4.644;2024-01-30T10:28:38;102756.50;;;5.50;66.71
64853;BME280;56050;55.558;-4.644;2024-01-30T10:31:03;102764.72;;;5.54;66.45
64853;BME280;56050;55.558;-4.644;2024-01-30T10:33:32;102765.97;;;5.56;66.69
64853;BME280;56050;55.558;-4.644;2024-01-30T10:36:01;102771.03;;;5.58;66.59
64853;BME280;56050;55.558;-4.644;2024-01-30T10:38:31;102768.06;;;5.59;66.69
64853;BME280;56050;55.558;-4.644;2024-01-30T10:40:58;102769.34;;;5.62;66.43
64853;BME280;56050;55.558;-4.644;2024-01-30T10:44:01;102774.69;;;5.62;66.55
64853;BME280;56050;55.558;-4.644;2024-01-30T10:46:20;102773.88;;;5.61;66.55
64853;BME280;56050;55.558;-4.644;2024-01-30T10:48:58;102779.75;;;5.63;66.51
64853;BME280;56050;55.558;-4.644;2024-01-30T10:51:26;102778.50;;;5.69;66.51
64853;BME280;56050;55.558;-4.644;2024-01-30T10:53:52;102782.66;;;5.75;66.56
64853;BME280;56050;55.558;-4.644;2024-01-30T10:56:20;102776.91;;;5.82;66.45
64853;BME280;56050;55.558;-4.644;2024-01-30T10:58:50;102786.56;;;5.91;66.42
64853;BME280;56050;55.558;-4.644;2024-01-30T11:01:20;102791.38;;;6.03;66.45
64853;BME280;56050;55.558;-4.644;2024-01-30T11:03:50;102792.44;;;6.16;66.46
64853;BME280;56050;55.558;-4.644;2024-01-30T11:06:16;102800.06;;;6.31;66.39
64853;BME280;56050;55.558;-4.644;2024-01-30T11:08:45;102794.81;;;6.48;66.31
64853;BME280;56050;55.558;-4.644;2024-01-30T11:11:11;102789.56;;;6.65;66.42
64853;BME280;56050;55.558;-4.644;2024-01-30T11:13:36;102790.41;;;6.83;66.64
64853;BME280;56050;55.558;-4.644;2024-01-30T11:16:03;102789.66;;;6.99;66.67
64853;BME280;56050;55.558;-4.644;2024-01-30T11:18:30;102798.84;;;7.16;66.74
64853;BME280;56050;55.558;-4.644;2024-01-30T11:20:59;102798.72;;;7.29;66.98
64853;BME280;56050;55.558;-4.644;2024-01-30T11:23:27;102792.13;;;7.44;66.65
64853;BME280;56050;55.558;-4.644;2024-01-30T11:25:54;102798.94;;;7.58;66.64
64853;BME280;56050;55.558;-4.644;2024-01-30T11:28:20;102792.31;;;7.73;66.57
64853;BME280;56050;55.558;-4.644;2024-01-30T11:30:46;102785.53;;;7.84;66.59
64853;BME280;56050;55.558;-4.644;2024-01-30T11:33:14;102782.81;;;7.93;66.77
64853;BME280;56050;55.558;-4.644;2024-01-30T11:35:44;102791.34;;;8.03;66.90
64853;BME280;56050;55.558;-4.644;2024-01-30T11:38:14;102784.06;;;8.12;67.04
64853;BME280;56050;55.558;-4.644;2024-01-30T11:40:43;102782.94;;;8.22;66.96
64853;BME280;56050;55.558;-4.644;2024-01-30T11:43:09;102782.94;;;8.31;67.08
64853;BME280;56050;55.558;-4.644;2024-01-30T11:45:35;102787.97;;;8.41;67.12
64853;BME280;56050;55.558;-4.644;2024-01-30T11:48:02;102774.53;;;8.49;67.06
64853;BME280;56050;55.558;-4.644;2024-01-30T11:50:37;102771.00;;;8.57;67.16
64853;BME280;56050;55.558;-4.644;2024-01-30T11:53:04;102776.66;;;8.64;67.14
64853;BME280;56050;55.558;-4.644;2024-01-30T11:55:30;102778.84;;;8.71;67.32
64853;BME280;56050;55.558;-4.644;2024-01-30T11:57:59;102776.47;;;8.78;67.12
64853;BME280;56050;55.558;-4.644;2024-01-30T12:00:25;102767.44;;;8.82;67.09
64853;BME280;56050;55.558;-4.644;2024-01-30T12:02:51;102772.31;;;8.89;67.18
64853;BME280;56050;55.558;-4.644;2024-01-30T12:05:19;102773.56;;;8.92;67.07
64853;BME280;56050;55.558;-4.644;2024-01-30T12:07:45;102775.91;;;8.93;67.13
64853;BME280;56050;55.558;-4.644;2024-01-30T12:10:12;102772.13;;;8.94;67.15
64853;BME280;56050;55.558;-4.644;2024-01-30T12:12:39;102776.38;;;8.95;67.11
64853;BME280;56050;55.558;-4.644;2024-01-30T12:15:06;102771.94;;;8.99;67.21
64853;BME280;56050;55.558;-4.644;2024-01-30T12:17:33;102767.47;;;9.03;67.29
64853;BME280;56050;55.558;-4.644;2024-01-30T12:22:28;102762.97;;;9.16;67.23
64853;BME280;56050;55.558;-4.644;2024-01-30T12:24:53;102757.41;;;9.21;66.92
64853;BME280;56050;55.558;-4.644;2024-01-30T12:27:19;102752.63;;;9.26;66.78
64853;BME280;56050;55.558;-4.644;2024-01-30T12:29:44;102750.84;;;9.30;66.88
64853;BME280;56050;55.558;-4.644;2024-01-30T12:32:15;102745.94;;;9.32;67.00
64853;BME280;56050;55.558;-4.644;2024-01-30T12:34:41;102740.56;;;9.32;66.90
64853;BME280;56050;55.558;-4.644;2024-01-30T12:37:07;102762.38;;;9.31;67.00
64853;BME280;56050;55.558;-4.644;2024-01-30T12:39:35;102746.88;;;9.28;67.06
64853;BME280;56050;55.558;-4.644;2024-01-30T12:42:00;102758.00;;;9.26;67.19
64853;BME280;56050;55.558;-4.644;2024-01-30T12:44:26;102762.28;;;9.27;67.28
64853;BME280;56050;55.558;-4.644;2024-01-30T12:46:51;102753.84;;;9.29;67.29